Time;durP1;ratioP1;P1;durP2;ratioP2;P2;SDS_P1;SDS_P2;PMS_P1;PMS_P2;Temp;Humidity;BMP_temperature;BMP_pressure;BME280_temperature;BME280_humidity;BME280_pressure;Samples;Min_cycle;Max_cycle;Signal;HPM_P1;HPM_P2
2023/01/10 00:00:35;;;;;;;25.80;7.70;;;;;;;2.49;100.00;101247.94;5075561;28;20028;-79
2023/01/10 00:03:06;;;;;;;24.02;6.82;;;;;;;2.48;100.00;101252.19;5074593;28;20087;-79
2023/01/10 00:05:32;;;;;;;22.52;7.00;;;;;;;2.39;100.00;101259.78;5075457;28;20384;-79
2023/01/10 00:07:58;;;;;;;31.15;7.20;;;;;;;2.36;100.00;101261.44;5075461;28;20032;-79
2023/01/10 00:10:24;;;;;;;27.52;7.90;;;;;;;2.37;100.00;101264.03;5074224;28;20536;-79
2023/01/10 00:15:33;;;;;;;;;;;;;;;2.34;100.00;101281.97;5063699;28;20040;-79
2023/01/10 00:17:59;;;;;;;27.73;7.13;;;;;;;2.30;100.00;101288.78;5074352;28;19916;-79
2023/01/10 00:20:24;;;;;;;28.60;8.05;;;;;;;2.21;100.00;101278.31;5073368;28;20025;-79
2023/01/10 00:22:49;;;;;;;24.20;7.25;;;;;;;2.14;100.00;101288.47;5067992;28;20032;-79
2023/01/10 00:25:15;;;;;;;27.63;7.07;;;;;;;2.17;100.00;101311.69;5072214;28;20017;-79
2023/01/10 00:27:44;;;;;;;28.02;6.95;;;;;;;2.11;100.00;101299.56;5071422;28;20031;-79
2023/01/10 00:30:13;;;;;;;27.45;7.15;;;;;;;2.16;100.00;101317.66;5073884;28;20138;-79
2023/01/10 00:32:43;;;;;;;24.45;7.95;;;;;;;2.13;100.00;101320.19;5074085;28;20052;-79
2023/01/10 00:35:10;;;;;;;26.50;6.72;;;;;;;2.13;100.00;101325.34;5074647;28;20066;-79
2023/01/10 00:37:36;;;;;;;23.27;7.75;;;;;;;2.00;100.00;101311.38;5074786;28;20483;-79
2023/01/10 00:40:01;;;;;;;23.95;8.30;;;;;;;2.05;100.00;101328.59;5072506;28;20025;-79
2023/01/10 00:45:13;;;;;;;30.42;8.05;;;;;;;2.10;100.00;101333.84;5073273;28;20056;-79
2023/01/10 00:47:38;;;;;;;30.02;7.25;;;;;;;2.08;100.00;101331.25;5072023;28;20032;-79
2023/01/10 00:50:05;;;;;;;24.10;6.78;;;;;;;2.13;100.00;101340.78;5073056;28;20033;-79
2023/01/10 00:52:30;;;;;;;26.45;8.50;;;;;;;2.20;100.00;101342.63;5070767;28;20128;-79
2023/01/10 00:54:56;;;;;;;23.13;8.23;;;;;;;2.28;100.00;101338.47;5071445;28;20115;-79
2023/01/10 00:57:21;;;;;;;26.73;8.27;;;;;;;2.36;100.00;101342.06;5061660;28;20045;-80
2023/01/10 00:59:46;;;;;;;34.63;9.15;;;;;;;2.47;100.00;101349.97;5071494;28;20494;-80
2023/01/10 01:02:12;;;;;;;38.50;8.95;;;;;;;2.46;100.00;101328.50;5072918;28;20025;-79
2023/01/10 01:04:37;;;;;;;43.75;9.88;;;;;;;2.57;100.00;101342.41;5068301;28;20044;-79
2023/01/10 01:07:02;;;;;;;39.47;9.05;;;;;;;2.56;100.00;101351.00;5071672;28;20020;-79
2023/01/10 01:09:28;;;;;;;40.35;8.98;;;;;;;2.43;100.00;101332.75;5072801;28;20128;-79
2023/01/10 01:11:55;;;;;;;41.33;8.85;;;;;;;2.41;100.00;101345.56;5072917;28;20036;-79
2023/01/10 01:14:21;;;;;;;27.50;9.30;;;;;;;2.40;100.00;101349.00;5068246;28;20085;-79
2023/01/10 01:16:46;;;;;;;40.47;13.00;;;;;;;2.13;100.00;101308.19;5071758;28;20066;-79
2023/01/10 01:19:12;;;;;;;47.05;15.95;;;;;;;2.48;100.00;101368.00;5064014;28;20028;-79
2023/01/10 01:21:37;;;;;;;53.25;18.10;;;;;;;2.56;100.00;101376.72;5063831;28;20024;-79
2023/01/10 01:24:02;;;;;;;56.20;18.88;;;;;;;2.54;100.00;101380.97;5056240;28;20029;-79
2023/01/10 01:26:28;;;;;;;59.05;18.98;;;;;;;2.61;100.00;101383.66;5067962;28;20025;-79
2023/01/10 01:28:53;;;;;;;65.05;21.17;;;;;;;2.68;100.00;101385.50;5062145;28;20024;-79
2023/01/10 01:31:18;;;;;;;49.80;17.60;;;;;;;2.67;100.00;101376.06;5073568;28;20432;-79
2023/01/10 01:33:45;;;;;;;50.65;16.35;;;;;;;2.64;100.00;101387.16;5073660;28;20468;-79
2023/01/10 01:36:11;;;;;;;45.22;16.00;;;;;;;2.58;100.00;101389.63;5072579;28;20455;-79
2023/01/10 01:38:38;;;;;;;43.22;14.25;;;;;;;2.57;100.00;101386.19;5073422;28;20086;-79
2023/01/10 01:41:55;;;;;;;43.92;13.88;;;;;;;2.67;100.00;101400.09;5072430;28;20040;-79
2023/01/10 01:44:04;;;;;;;38.92;12.55;;;;;;;2.72;100.00;101402.75;5073239;28;20036;-79
2023/01/10 01:46:34;;;;;;;45.78;12.98;;;;;;;2.83;100.00;101414.09;5060439;28;20052;-79
2023/01/10 01:49:02;;;;;;;33.92;11.80;;;;;;;2.89;100.00;101411.63;5072047;28;20379;-79
2023/01/10 01:51:29;;;;;;;41.47;11.25;;;;;;;2.93;100.00;101417.69;5072867;28;20043;-79
2023/01/10 01:54:06;;;;;;;36.50;10.50;;;;;;;2.98;100.00;101419.53;5073227;28;20060;-80
2023/01/10 01:56:50;;;;;;;35.45;10.45;;;;;;;3.01;100.00;101424.72;5072675;28;20021;-79
2023/01/10 01:59:27;;;;;;;36.70;10.20;;;;;;;3.02;100.00;101418.72;5072654;28;20016;-79
2023/01/10 02:01:58;;;;;;;35.08;9.85;;;;;;;3.08;100.00;101427.41;5073569;28;20017;-79
2023/01/10 02:04:30;;;;;;;44.55;10.60;;;;;;;3.07;100.00;101415.34;5071908;28;20035;-79
2023/01/10 02:06:57;;;;;;;34.90;9.95;;;;;;;3.18;100.00;101426.72;5073284;28;20028;-80
2023/01/10 02:09:32;;;;;;;38.13;10.02;;;;;;;3.21;100.00;101432.78;5072061;28;20864;-80
2023/01/10 02:11:57;;;;;;;46.88;9.80;;;;;;;3.18;100.00;101422.44;5059623;28;20404;-81
2023/01/10 02:14:25;;;;;;;36.55;9.95;;;;;;;3.16;100.00;101436.13;5072015;28;20499;-81
2023/01/10 02:16:51;;;;;;;36.60;9.98;;;;;;;3.05;100.00;101430.78;5065866;28;20063;-81
2023/01/10 02:19:45;;;;;;;42.53;10.10;;;;;;;3.00;100.00;101435.84;5072379;28;20468;-80
2023/01/10 02:22:17;;;;;;;37.33;8.43;;;;;;;2.99;100.00;101441.00;5054329;28;20028;-80
2023/01/10 02:25:20;;;;;;;39.47;9.68;;;;;;;2.97;100.00;101440.94;5072317;28;20082;-80
2023/01/10 02:28:29;;;;;;;26.67;8.32;;;;;;;2.97;100.00;101446.09;5063801;28;20058;-80
2023/01/10 02:31:25;;;;;;;33.97;8.18;;;;;;;2.88;100.00;101438.25;5060901;28;20032;-80
2023/01/10 02:34:17;;;;;;;32.88;8.00;;;;;;;2.83;100.00;101433.84;5072445;28;20502;-80
2023/01/10 02:36:55;;;;;;;36.28;7.85;;;;;;;2.78;100.00;101431.19;5072421;28;20067;-80
2023/01/10 02:39:31;;;;;;;28.80;7.47;;;;;;;2.78;100.00;101434.63;5071562;28;20107;-79
2023/01/10 02:42:06;;;;;;;34.20;7.93;;;;;;;2.69;100.00;101418.16;5072506;28;20056;-80
2023/01/10 02:44:44;;;;;;;42.90;7.50;;;;;;;2.68;100.00;101439.56;5071233;28;20021;-80
2023/01/10 02:47:12;;;;;;;38.35;7.43;;;;;;;2.61;100.00;101424.84;5072315;28;20025;-79
2023/01/10 02:49:45;;;;;;;40.28;7.28;;;;;;;2.57;100.00;101437.66;5072502;28;20145;-79
2023/01/10 02:52:15;;;;;;;28.05;6.75;;;;;;;2.48;100.00;101439.19;5070606;28;20040;-80
2023/01/10 02:54:41;;;;;;;28.48;7.07;;;;;;;2.36;100.00;101434.69;5072435;28;20035;-79
2023/01/10 02:57:28;;;;;;;34.97;7.35;;;;;;;2.43;100.00;101446.84;5072526;28;20020;-79
2023/01/10 03:00:09;;;;;;;28.48;6.28;;;;;;;2.36;100.00;101450.13;5071348;28;20021;-79
2023/01/10 03:03:07;;;;;;;37.33;7.30;;;;;;;2.30;100.00;101452.59;5086047;28;20027;-79
2023/01/10 03:05:53;;;;;;;37.55;8.27;;;;;;;2.27;100.00;101455.09;5060644;28;20028;-79
2023/01/10 03:08:37;;;;;;;37.42;6.78;;;;;;;2.26;100.00;101471.38;5072020;28;20052;-79
2023/01/10 03:11:06;;;;;;;32.72;6.40;;;;;;;2.24;100.00;101468.75;5072360;28;20055;-79
2023/01/10 03:13:56;;;;;;;28.80;7.20;;;;;;;2.27;100.00;101479.09;5070916;28;20028;-80
2023/01/10 03:16:29;;;;;;;33.50;6.50;;;;;;;2.41;100.00;101471.66;5052913;28;20044;-79
2023/01/10 03:19:00;;;;;;;31.65;7.72;;;;;;;2.52;100.00;101480.47;5072428;28;20028;-79
2023/01/10 03:21:28;;;;;;;26.95;7.35;;;;;;;2.57;100.00;101485.72;5071236;28;20020;-79
2023/01/10 03:23:59;;;;;;;31.00;7.18;;;;;;;2.65;100.00;101498.72;5071964;28;20074;-79
2023/01/10 03:26:31;;;;;;;30.35;7.13;;;;;;;2.64;100.00;101481.53;5071739;28;20025;-80
2023/01/10 03:29:05;;;;;;;36.00;7.72;;;;;;;2.74;100.00;101504.06;5071774;28;20029;-79
2023/01/10 03:31:38;;;;;;;35.10;7.47;;;;;;;2.78;100.00;101498.16;5072172;28;20021;-79
2023/01/10 03:34:04;;;;;;;38.53;7.55;;;;;;;2.82;100.00;101507.66;5071312;28;20020;-79
2023/01/10 03:36:37;;;;;;;34.13;7.80;;;;;;;2.86;100.00;101494.00;5071982;28;20056;-79
2023/01/10 03:39:15;;;;;;;37.22;7.60;;;;;;;2.92;100.00;101509.56;5086108;28;20013;-79
2023/01/10 03:41:59;;;;;;;32.08;7.78;;;;;;;2.91;100.00;101501.78;5060505;28;20025;-79
2023/01/10 03:44:42;;;;;;;;;;;;;;;2.91;100.00;101510.41;5072126;28;20056;-80
2023/01/10 03:47:18;;;;;;;30.73;7.22;;;;;;;2.92;100.00;101519.88;5071842;28;20360;-79
2023/01/10 03:49:47;;;;;;;38.53;7.53;;;;;;;2.90;100.00;101523.25;5071086;28;20099;-79
2023/01/10 03:52:14;;;;;;;34.70;6.97;;;;;;;2.92;100.00;101525.00;5071472;28;20150;-80
2023/01/10 03:54:42;;;;;;;35.90;6.65;;;;;;;2.89;100.00;101522.38;5070886;28;20032;-79
2023/01/10 03:57:13;;;;;;;47.63;7.43;;;;;;;2.94;100.00;101528.50;5070025;28;20077;-79
2023/01/10 03:59:38;;;;;;;46.20;7.97;;;;;;;2.96;100.00;101536.25;5071379;28;20028;-80
2023/01/10 04:02:04;;;;;;;41.25;7.00;;;;;;;2.89;100.00;101526.66;5071026;28;20483;-80
2023/01/10 04:04:31;;;;;;;38.08;7.05;;;;;;;2.98;100.00;101539.72;5071411;28;20029;-79
2023/01/10 04:06:56;;;;;;;42.58;6.93;;;;;;;2.96;100.00;101536.25;5075703;28;20020;-80
2023/01/10 04:09:21;;;;;;;34.38;5.82;;;;;;;2.99;100.00;101538.88;5074075;28;20588;-79
2023/01/10 04:11:47;;;;;;;31.05;6.30;;;;;;;3.01;100.00;101548.38;5075604;28;20043;-79
2023/01/10 04:14:12;;;;;;;40.40;7.00;;;;;;;3.00;100.00;101544.03;5074335;28;20024;-80
2023/01/10 04:16:37;;;;;;;45.63;7.05;;;;;;;2.94;100.00;101545.63;5072889;28;20216;-80
2023/01/10 04:19:02;;;;;;;27.05;6.35;;;;;;;2.92;100.00;101549.91;5073152;28;20075;-80
2023/01/10 04:21:28;;;;;;;33.35;5.97;;;;;;;2.87;100.00;101552.38;5070201;28;20469;-79
2023/01/10 04:23:53;;;;;;;32.38;6.05;;;;;;;2.90;100.00;101560.16;5073504;28;20056;-80
2023/01/10 04:26:18;;;;;;;37.45;5.88;;;;;;;2.91;100.00;101564.50;5073792;28;20028;-79
2023/01/10 04:28:44;;;;;;;36.92;6.90;;;;;;;2.97;100.00;101574.03;5067531;28;20035;-80
2023/01/10 04:31:09;;;;;;;41.30;6.63;;;;;;;2.97;100.00;101566.31;5073240;28;20483;-79
2023/01/10 04:33:34;;;;;;;30.63;6.28;;;;;;;2.90;100.00;101549.84;5074906;28;20078;-79
2023/01/10 04:35:59;;;;;;;31.33;5.75;;;;;;;3.00;100.00;101563.78;5074922;28;20104;-79
2023/01/10 04:38:25;;;;;;;50.45;6.30;;;;;;;2.96;100.00;101562.88;5088395;28;20025;-79
2023/01/10 04:40:54;;;;;;;48.33;5.93;;;;;;;2.95;100.00;101558.56;5074065;28;20071;-79
2023/01/10 04:43:20;;;;;;;35.90;5.57;;;;;;;2.91;100.00;101558.44;5073387;28;20094;-79
2023/01/10 04:45:45;;;;;;;36.88;6.35;;;;;;;2.78;100.00;101536.78;5070135;28;20033;-79
2023/01/10 04:48:11;;;;;;;37.05;6.10;;;;;;;2.78;100.00;101547.06;5069206;28;20475;-79
2023/01/10 04:50:36;;;;;;;38.42;6.13;;;;;;;2.76;100.00;101553.88;5073671;28;20372;-79
2023/01/10 04:53:01;;;;;;;42.72;6.88;;;;;;;2.90;100.00;101588.50;5073542;28;20086;-80
2023/01/10 04:55:26;;;;;;;39.15;6.45;;;;;;;2.97;100.00;101586.91;5074390;28;20059;-79
2023/01/10 04:57:52;;;;;;;37.88;6.57;;;;;;;2.98;100.00;101586.94;5074060;28;20031;-79
2023/01/10 05:00:17;;;;;;;38.75;6.93;;;;;;;2.96;100.00;101562.88;5074115;28;20534;-79
2023/01/10 05:02:43;;;;;;;32.92;5.80;;;;;;;2.98;100.00;101562.91;5073527;28;20031;-79
2023/01/10 05:05:12;;;;;;;41.88;6.53;;;;;;;2.87;100.00;101554.94;5073224;28;20033;-79
2023/01/10 05:07:39;;;;;;;44.33;6.63;;;;;;;2.91;100.00;101579.06;5060738;28;20020;-80
2023/01/10 05:10:06;;;;;;;42.40;6.38;;;;;;;2.89;100.00;101585.91;5074289;28;20021;-80
2023/01/10 05:12:31;;;;;;;43.17;6.53;;;;;;;2.90;100.00;101591.06;5072993;28;20090;-80
2023/01/10 05:14:56;;;;;;;34.45;6.38;;;;;;;2.93;100.00;101609.16;5074203;28;20460;-80
2023/01/10 05:17:22;;;;;;;37.53;6.30;;;;;;;2.96;100.00;101622.09;5073288;28;20108;-79
2023/01/10 05:19:47;;;;;;;39.33;6.03;;;;;;;2.93;100.00;101624.63;5073621;28;20029;-79
2023/01/10 05:22:12;;;;;;;40.20;6.03;;;;;;;3.00;100.00;101634.19;5073456;28;20475;-80
2023/01/10 05:24:37;;;;;;;41.00;6.40;;;;;;;3.08;100.00;101638.66;5074036;28;20531;-79
2023/01/10 05:27:03;;;;;;;33.75;5.63;;;;;;;3.09;100.00;101627.50;5073351;28;20024;-79
2023/01/10 05:29:28;;;;;;;35.53;6.25;;;;;;;3.04;100.00;101629.97;5073487;28;20020;-79
2023/01/10 05:31:53;;;;;;;42.22;6.35;;;;;;;3.10;100.00;101634.38;5073785;28;20051;-80
2023/01/10 05:34:19;;;;;;;32.15;6.28;;;;;;;3.08;100.00;101636.09;5072484;28;20174;-80
2023/01/10 05:36:46;;;;;;;43.90;5.95;;;;;;;3.05;100.00;101629.16;5073667;28;20111;-80
2023/01/10 05:39:12;;;;;;;41.60;6.15;;;;;;;3.12;100.00;101641.31;5073049;28;20036;-79
2023/01/10 05:41:39;;;;;;;42.80;6.47;;;;;;;3.05;100.00;101626.59;5059147;28;20020;-79
2023/01/10 05:44:04;;;;;;;33.25;5.30;;;;;;;3.09;100.00;101630.94;5071258;28;20025;-79
2023/01/10 05:46:29;;;;;;;32.58;7.18;;;;;;;3.09;100.00;101633.53;5070599;28;20384;-80
2023/01/10 05:48:55;;;;;;;45.28;5.88;;;;;;;3.12;100.00;101654.19;5067867;28;20032;-80
2023/01/10 05:51:20;;;;;;;37.72;5.88;;;;;;;3.08;100.00;101644.69;5072159;28;20191;-79
2023/01/10 05:53:45;;;;;;;43.65;6.85;;;;;;;3.09;100.00;101646.41;5071043;28;20049;-79
2023/01/10 05:56:11;;;;;;;39.38;6.40;;;;;;;3.11;100.00;101659.34;5072300;28;20108;-80
2023/01/10 05:58:36;;;;;;;48.13;5.85;;;;;;;3.09;100.00;101658.44;5072535;28;20426;-80
2023/01/10 06:01:01;;;;;;;37.30;6.45;;;;;;;3.08;100.00;101656.69;5068306;28;20480;-80
2023/01/10 06:03:26;;;;;;;39.75;5.85;;;;;;;3.13;100.00;101667.94;5069816;28;20468;-79
2023/01/10 06:05:53;;;;;;;34.60;5.95;;;;;;;3.13;100.00;101665.38;5067316;28;20043;-79
2023/01/10 06:08:19;;;;;;;28.05;5.80;;;;;;;3.14;100.00;101669.66;5072135;28;20052;-79
2023/01/10 06:10:44;;;;;;;47.03;6.35;;;;;;;3.13;100.00;101671.38;5073041;28;20044;-80
2023/01/10 06:13:11;;;;;;;30.92;5.13;;;;;;;3.11;100.00;101664.50;5072125;28;20111;-79
2023/01/10 06:15:36;;;;;;;34.80;6.03;;;;;;;3.12;100.00;101666.22;5072256;28;20029;-79
2023/01/10 06:18:02;;;;;;;41.75;5.13;;;;;;;3.08;100.00;101651.53;5069483;28;20023;-80
2023/01/10 06:20:28;;;;;;;46.45;6.13;;;;;;;3.05;100.00;101668.66;5072473;28;20872;-79
2023/01/10 06:22:53;;;;;;;35.92;4.90;;;;;;;3.04;100.00;101663.47;5077976;28;20032;-80
2023/01/10 06:25:19;;;;;;;33.17;5.07;;;;;;;3.05;100.00;101673.81;5080901;28;20032;-80
2023/01/10 06:27:44;;;;;;;44.28;5.18;;;;;;;3.06;100.00;101677.25;5071993;28;20064;-80
2023/01/10 06:30:12;;;;;;;40.17;5.35;;;;;;;3.03;100.00;101672.03;5071045;28;20020;-79
2023/01/10 06:32:38;;;;;;;37.17;5.32;;;;;;;2.98;100.00;101674.53;5072909;28;20032;-79
2023/01/10 06:35:04;;;;;;;36.47;5.18;;;;;;;2.96;100.00;101671.03;5072992;28;20108;-79
2023/01/10 06:37:29;;;;;;;40.55;5.38;;;;;;;2.96;100.00;101690.78;5071933;28;20036;-80
2023/01/10 06:39:54;;;;;;;38.17;5.60;;;;;;;2.86;100.00;101679.41;5072932;28;20083;-79
2023/01/10 06:42:20;;;;;;;41.00;6.55;;;;;;;2.81;100.00;101687.06;5072501;28;20435;-79
2023/01/10 06:44:45;;;;;;;36.35;5.68;;;;;;;2.60;100.00;101670.25;5085780;28;20036;-80
2023/01/10 06:47:12;;;;;;;28.52;5.70;;;;;;;2.57;100.00;101697.66;5071422;28;20035;-79
2023/01/10 06:49:37;;;;;;;31.63;5.03;;;;;;;2.53;100.00;101700.13;5071072;28;20104;-79
2023/01/10 06:52:03;;;;;;;35.97;5.18;;;;;;;2.41;100.00;101690.41;5059478;28;20167;-79
2023/01/10 06:54:28;;;;;;;29.83;5.75;;;;;;;2.33;100.00;101691.94;5061718;28;20040;-79
2023/01/10 06:56:53;;;;;;;33.80;5.68;;;;;;;2.31;100.00;101704.75;5072068;28;20103;-79
2023/01/10 06:59:19;;;;;;;33.80;6.10;;;;;;;2.28;100.00;101714.97;5071137;28;20086;-79
2023/01/10 07:01:44;;;;;;;30.75;5.70;;;;;;;2.21;100.00;101714.81;5072391;28;20493;-79
2023/01/10 07:04:09;;;;;;;33.22;5.05;;;;;;;2.26;100.00;101731.25;5071431;28;20131;-79
2023/01/10 07:06:36;;;;;;;35.13;5.40;;;;;;;2.20;100.00;101725.94;5071793;28;20017;-79
2023/01/10 07:09:02;;;;;;;30.13;5.20;;;;;;;2.24;100.00;101745.75;5072096;28;20017;-80
2023/01/10 07:11:27;;;;;;;38.15;5.32;;;;;;;2.21;100.00;101748.25;5071849;28;20031;-80
2023/01/10 07:13:53;;;;;;;47.88;5.80;;;;;;;2.27;100.00;101744.13;5071583;28;20066;-80
2023/01/10 07:16:18;;;;;;;38.33;5.65;;;;;;;2.33;100.00;101764.00;5072032;28;20048;-80
2023/01/10 07:18:43;;;;;;;37.10;5.72;;;;;;;2.35;100.00;101757.16;5071670;28;20048;-80
2023/01/10 07:21:10;;;;;;;36.90;5.28;;;;;;;2.39;100.00;101751.28;5071418;28;20546;-80
2023/01/10 07:23:36;;;;;;;32.47;5.35;;;;;;;2.33;100.00;101759.72;5072336;28;20082;-80
2023/01/10 07:26:04;;;;;;;36.90;5.65;;;;;;;2.33;100.00;101758.84;5071131;28;20059;-80
2023/01/10 07:28:30;;;;;;;34.05;4.93;;;;;;;2.43;100.00;101760.81;5072059;28;20036;-80
2023/01/10 07:31:00;;;;;;;36.45;5.47;;;;;;;2.40;100.00;101776.19;5071737;28;20357;-80
2023/01/10 07:33:27;;;;;;;35.13;5.82;;;;;;;2.46;100.00;101778.06;5070900;28;20031;-80
2023/01/10 07:35:52;;;;;;;34.53;5.53;;;;;;;2.45;100.00;101777.19;5070557;28;20032;-80
2023/01/10 07:38:17;;;;;;;36.47;5.55;;;;;;;2.47;100.00;101795.22;5070254;28;20633;-80
2023/01/10 07:40:43;;;;;;;29.95;4.88;;;;;;;2.47;100.00;101793.50;5067126;28;20024;-80
2023/01/10 07:43:08;;;;;;;35.50;5.78;;;;;;;2.49;100.00;101791.88;5074174;28;20021;-80
2023/01/10 07:45:34;;;;;;;41.88;6.03;;;;;;;2.49;100.00;101791.88;5071353;28;20028;-80
2023/01/10 07:48:01;;;;;;;30.88;6.00;;;;;;;2.51;100.00;101805.63;5072014;28;20391;-80
2023/01/10 07:50:28;;;;;;;38.40;5.30;;;;;;;2.42;100.00;101784.81;5071521;28;20127;-80
2023/01/10 07:52:54;;;;;;;40.60;5.47;;;;;;;2.38;100.00;101806.16;5074790;28;20044;-80
2023/01/10 07:55:20;;;;;;;39.17;6.43;;;;;;;2.37;100.00;101806.13;5074274;28;20024;-80
2023/01/10 07:57:45;;;;;;;41.80;6.03;;;;;;;2.36;100.00;101807.84;5075135;28;20021;-80
2023/01/10 08:00:11;;;;;;;31.98;6.30;;;;;;;2.32;100.00;101806.00;5074534;28;20017;-80
2023/01/10 08:02:36;;;;;;;37.95;5.10;;;;;;;2.30;100.00;101812.81;5074169;28;20494;-80
2023/01/10 08:05:03;;;;;;;33.67;5.47;;;;;;;2.26;100.00;101813.56;5072408;28;20105;-80
2023/01/10 08:07:29;;;;;;;34.35;5.80;;;;;;;2.21;100.00;101802.28;5071885;28;20839;-80
2023/01/10 08:09:54;;;;;;;34.05;7.32;;;;;;;2.07;100.00;101797.66;5073919;28;20028;-80
2023/01/10 08:12:20;;;;;;;33.97;5.80;;;;;;;2.16;100.00;101802.19;5064723;28;20039;-80
2023/01/10 08:14:46;;;;;;;37.70;5.60;;;;;;;2.16;100.00;101796.13;5073053;28;20032;-79
2023/01/10 08:17:11;;;;;;;37.13;5.88;;;;;;;2.19;100.00;101811.66;5072371;28;20081;-80
2023/01/10 08:19:36;;;;;;;36.45;5.28;;;;;;;2.18;100.00;101791.91;5074725;28;20044;-80
2023/01/10 08:22:02;;;;;;;33.97;5.38;;;;;;;2.21;100.00;101799.72;5072738;28;20111;-80
2023/01/10 08:24:27;;;;;;;28.25;5.18;;;;;;;2.23;100.00;101792.91;5072943;28;20051;-78
2023/01/10 08:26:53;;;;;;;35.15;5.68;;;;;;;2.30;100.00;101807.66;5074651;28;20027;-80
2023/01/10 08:29:18;;;;;;;43.40;5.95;;;;;;;2.33;100.00;101805.19;5073177;28;20039;-80
2023/01/10 08:31:43;;;;;;;41.30;5.88;;;;;;;2.36;100.00;101809.53;5074688;28;20025;-80
2023/01/10 08:34:11;;;;;;;31.77;6.18;;;;;;;2.40;100.00;101807.06;5073792;28;20514;-80
2023/01/10 08:36:36;;;;;;;36.90;5.85;;;;;;;2.43;100.00;101814.88;5074183;28;20553;-80
2023/01/10 08:39:01;;;;;;;28.58;5.75;;;;;;;2.44;100.00;101811.47;5074715;28;20032;-80
2023/01/10 08:41:27;;;;;;;36.13;6.55;;;;;;;2.44;100.00;101795.16;5074285;28;20024;-80
2023/01/10 08:43:52;;;;;;;34.60;5.78;;;;;;;2.53;100.00;101803.97;5073937;28;20059;-80
2023/01/10 08:46:19;;;;;;;38.10;5.38;;;;;;;2.60;100.00;101804.13;5074526;28;20029;-80
2023/01/10 08:48:44;;;;;;;29.52;5.65;;;;;;;2.63;100.00;101807.63;5073109;28;22211;-80
2023/01/10 08:51:10;;;;;;;37.10;5.72;;;;;;;2.63;100.00;101791.34;5072432;28;20032;-80
2023/01/10 08:53:38;;;;;;;35.85;5.47;;;;;;;2.73;100.00;101809.59;5074442;28;20060;-80
2023/01/10 08:56:03;;;;;;;44.08;5.68;;;;;;;2.73;100.00;101804.44;5074478;28;20101;-80
2023/01/10 08:58:29;;;;;;;34.15;5.75;;;;;;;2.74;100.00;101795.88;5073731;28;20460;-80
2023/01/10 09:00:54;;;;;;;35.78;5.07;;;;;;;2.71;100.00;101785.50;5073628;28;20056;-80
2023/01/10 09:03:19;;;;;;;30.38;4.63;;;;;;;2.81;100.00;101790.06;5073944;28;20107;-81
2023/01/10 09:05:45;;;;;;;34.85;4.95;;;;;;;2.84;100.00;101793.53;5073416;28;20059;-80
2023/01/10 09:08:10;;;;;;;26.85;4.45;;;;;;;2.90;100.00;101793.69;5074063;28;20060;-80
2023/01/10 09:10:35;;;;;;;34.17;5.07;;;;;;;2.95;100.00;101795.53;5074098;28;20390;-81
2023/01/10 09:13:01;;;;;;;35.25;5.30;;;;;;;2.99;100.00;101783.59;5073630;28;20104;-80
2023/01/10 09:15:30;;;;;;;30.25;4.50;;;;;;;2.99;100.00;101781.88;5072622;28;20476;-81
2023/01/10 09:18:06;;;;;;;36.75;5.18;;;;;;;3.08;100.00;101793.25;5073326;28;20029;-80
2023/01/10 09:20:34;;;;;;;30.40;5.88;;;;;;;3.05;100.00;101784.59;5073829;28;20031;-80
2023/01/10 09:23:07;;;;;;;34.83;5.60;;;;;;;3.11;100.00;101793.31;5073019;28;20033;-81
2023/01/10 09:25:33;;;;;;;39.17;5.03;;;;;;;3.16;100.00;101796.84;5072142;28;20062;-81
2023/01/10 09:27:59;;;;;;;31.73;6.13;;;;;;;3.15;100.00;101789.97;5068639;28;20056;-80
2023/01/10 09:30:26;;;;;;;29.70;4.60;;;;;;;3.18;100.00;101785.75;5071970;28;20031;-81
2023/01/10 09:32:53;;;;;;;25.70;4.88;;;;;;;3.20;100.00;101789.19;5072685;28;20103;-81
2023/01/10 09:35:18;;;;;;;23.17;4.97;;;;;;;3.18;100.00;101780.59;5071824;28;20105;-81
2023/01/10 09:37:44;;;;;;;28.02;4.65;;;;;;;3.23;100.00;101780.69;5073116;28;20053;-81
2023/01/10 09:40:14;;;;;;;25.58;4.03;;;;;;;3.27;100.00;101785.09;5072611;28;20037;-80
2023/01/10 09:42:50;;;;;;;35.45;5.82;;;;;;;3.33;100.00;101780.03;5072274;28;20039;-82
2023/01/10 09:45:24;;;;;;;30.75;4.30;;;;;;;3.38;100.00;101788.75;5072311;28;20498;-80
2023/01/10 09:47:57;;;;;;;29.05;4.53;;;;;;;3.40;100.00;101787.09;5072769;28;20044;-81
2023/01/10 09:50:28;;;;;;;29.65;4.63;;;;;;;3.43;100.00;101787.16;5072337;28;20115;-80
2023/01/10 09:53:03;;;;;;;29.77;4.57;;;;;;;3.49;100.00;101782.09;5072982;28;20036;-81
2023/01/10 09:55:32;;;;;;;28.15;4.22;;;;;;;3.52;100.00;101776.13;5072217;28;20426;-81
2023/01/10 09:58:02;;;;;;;26.83;3.88;;;;;;;3.55;100.00;101775.34;5072993;28;20418;-81
2023/01/10 10:00:56;;;;;;;20.05;3.88;;;;;;;3.61;100.00;101772.88;5071916;28;20384;-80
2023/01/10 10:03:31;;;;;;;25.80;4.13;;;;;;;3.59;100.00;101767.69;5065211;28;20449;-81
2023/01/10 10:05:56;;;;;;;20.15;4.53;;;;;;;3.67;100.00;101781.59;5073020;28;20028;-80
2023/01/10 10:08:22;;;;;;;21.00;3.88;;;;;;;3.73;100.00;101781.72;5071646;28;20032;-80
2023/01/10 10:11:18;;;;;;;25.05;4.28;;;;;;;3.72;100.00;101779.09;5072792;28;20036;-81
2023/01/10 10:13:53;;;;;;;23.23;4.43;;;;;;;3.82;100.00;101781.03;5072986;28;20031;-80
2023/01/10 10:16:52;;;;;;;33.58;5.05;;;;;;;3.90;100.00;101776.03;5071853;28;20029;-81
2023/01/10 10:19:39;;;;;;;28.60;4.22;;;;;;;3.93;100.00;101766.63;5072056;28;20017;-81
2023/01/10 10:22:22;;;;;;;17.55;4.03;;;;;;;3.92;100.00;101762.31;5072101;28;20089;-81
2023/01/10 10:25:14;;;;;;;26.45;3.83;;;;;;;3.90;100.00;101747.66;5060035;28;20391;-81
2023/01/10 10:27:58;;;;;;;20.52;4.20;;;;;;;3.98;100.00;101754.66;5072690;28;20086;-81
2023/01/10 10:30:32;;;;;;;24.00;4.32;;;;;;;4.04;100.00;101755.63;5071518;28;20111;-81
2023/01/10 10:33:00;;;;;;;26.02;4.68;;;;;;;4.07;100.00;101756.56;5072589;28;20021;-81
2023/01/10 10:35:30;;;;;;;15.10;3.80;;;;;;;4.12;100.00;101754.03;5072168;28;20025;-81
2023/01/10 10:38:11;;;;;;;20.38;4.20;;;;;;;4.08;100.00;101735.06;5072531;28;20048;-80
2023/01/10 10:40:41;;;;;;;22.10;4.18;;;;;;;4.13;100.00;101736.03;5072556;28;20074;-80
2023/01/10 10:43:19;;;;;;;23.30;5.28;;;;;;;4.20;100.00;101734.41;5071635;28;20027;-81
2023/01/10 10:45:51;;;;;;;17.50;3.38;;;;;;;4.14;100.00;101716.25;5072547;28;20028;-80
2023/01/10 10:48:25;;;;;;;25.30;4.22;;;;;;;4.26;100.00;101718.16;5071949;28;20027;-81
2023/01/10 10:51:02;;;;;;;17.17;3.40;;;;;;;4.32;100.00;101716.56;5063970;28;20067;-80
2023/01/10 10:53:31;;;;;;;20.67;4.00;;;;;;;4.35;100.00;101711.44;5071141;28;20064;-81
2023/01/10 10:55:57;;;;;;;23.80;4.00;;;;;;;4.37;100.00;101712.31;5072176;28;20396;-80
2023/01/10 10:58:25;;;;;;;22.42;3.83;;;;;;;4.41;100.00;101706.38;5071057;28;20021;-81
2023/01/10 11:00:51;;;;;;;29.58;3.85;;;;;;;4.44;100.00;101708.97;5072078;28;20067;-81
2023/01/10 11:03:58;;;;;;;23.67;4.55;;;;;;;4.50;100.00;101708.22;5071363;28;20020;-81
2023/01/10 11:06:27;;;;;;;21.48;3.67;;;;;;;4.55;100.00;101697.97;4999836;28;20065;-81
2023/01/10 11:08:56;;;;;;;21.73;4.75;;;;;;;4.54;100.00;101684.16;5007579;28;20026;-81
2023/01/10 11:11:28;;;;;;;19.73;4.88;;;;;;;4.56;100.00;101674.75;5038360;28;20039;-81
2023/01/10 11:13:57;;;;;;;22.95;3.83;;;;;;;4.61;100.00;101691.19;5075883;28;20054;-81
2023/01/10 11:16:35;;;;;;;16.48;4.40;;;;;;;4.59;100.00;101674.78;5071552;28;20476;-81
2023/01/10 11:19:24;;;;;;;18.92;4.38;;;;;;;4.61;100.00;101682.53;5071235;28;20039;-80
2023/01/10 11:21:59;;;;;;;20.15;5.32;;;;;;;4.59;100.00;101681.66;5063700;28;20040;-81
2023/01/10 11:24:31;;;;;;;20.73;4.50;;;;;;;4.55;100.00;101667.00;5071210;28;20361;-81
2023/01/10 11:27:00;;;;;;;23.73;4.03;;;;;;;4.66;100.00;101681.78;5071426;28;20025;-80
2023/01/10 11:30:00;;;;;;;25.50;4.95;;;;;;;4.70;100.00;101680.09;5071361;28;20354;-81
2023/01/10 11:32:39;;;;;;;25.67;5.22;;;;;;;4.74;100.00;101678.41;5070229;28;20521;-80